sensor_id;sensor_type;location;lat;lon;timestamp;P1;durP1;ratioP1;P2;durP2;ratioP2
75289;SDS011;63883;48.996;20.804;2023-05-15T00:00:50;2.83;;;2.30;;
75289;SDS011;63883;48.996;20.804;2023-05-15T00:03:27;3.03;;;2.40;;
75289;SDS011;63883;48.996;20.804;2023-05-15T00:05:53;3.78;;;2.40;;
75289;SDS011;63883;48.996;20.804;2023-05-15T00:08:19;3.35;;;2.10;;
75289;SDS011;63883;48.996;20.804;2023-05-15T00:10:45;2.45;;;1.90;;
75289;SDS011;63883;48.996;20.804;2023-05-15T00:13:10;3.03;;;2.10;;
75289;SDS011;63883;48.996;20.804;2023-05-15T00:15:36;3.47;;;2.40;;
75289;SDS011;63883;48.996;20.804;2023-05-15T00:18:02;3.15;;;2.85;;
75289;SDS011;63883;48.996;20.804;2023-05-15T00:20:28;3.53;;;2.20;;
75289;SDS011;63883;48.996;20.804;2023-05-15T00:22:53;2.78;;;2.08;;
75289;SDS011;63883;48.996;20.804;2023-05-15T00:25:19;2.58;;;2.20;;
75289;SDS011;63883;48.996;20.804;2023-05-15T00:27:45;3.35;;;2.20;;
75289;SDS011;63883;48.996;20.804;2023-05-15T00:30:11;3.33;;;2.22;;
75289;SDS011;63883;48.996;20.804;2023-05-15T00:32:37;2.95;;;2.20;;
75289;SDS011;63883;48.996;20.804;2023-05-15T00:35:04;3.30;;;2.33;;
75289;SDS011;63883;48.996;20.804;2023-05-15T00:37:30;3.63;;;2.10;;
75289;SDS011;63883;48.996;20.804;2023-05-15T00:39:55;1.95;;;1.75;;
75289;SDS011;63883;48.996;20.804;2023-05-15T00:42:22;2.40;;;2.05;;
75289;SDS011;63883;48.996;20.804;2023-05-15T00:44:49;2.97;;;2.13;;
75289;SDS011;63883;48.996;20.804;2023-05-15T00:47:17;2.97;;;2.20;;
75289;SDS011;63883;48.996;20.804;2023-05-15T00:54:37;3.63;;;2.30;;
75289;SDS011;63883;48.996;20.804;2023-05-15T00:57:03;3.25;;;2.45;;
75289;SDS011;63883;48.996;20.804;2023-05-15T00:59:30;3.85;;;2.33;;
75289;SDS011;63883;48.996;20.804;2023-05-15T01:01:56;2.30;;;2.10;;
75289;SDS011;63883;48.996;20.804;2023-05-15T01:04:22;2.53;;;2.28;;
75289;SDS011;63883;48.996;20.804;2023-05-15T01:06:48;2.55;;;2.35;;
75289;SDS011;63883;48.996;20.804;2023-05-15T01:09:15;2.80;;;2.08;;
75289;SDS011;63883;48.996;20.804;2023-05-15T01:11:43;2.38;;;1.90;;
75289;SDS011;63883;48.996;20.804;2023-05-15T01:14:11;2.03;;;1.83;;
75289;SDS011;63883;48.996;20.804;2023-05-15T01:16:37;1.70;;;1.60;;
75289;SDS011;63883;48.996;20.804;2023-05-15T01:19:03;3.08;;;1.83;;
75289;SDS011;63883;48.996;20.804;2023-05-15T01:35:20;2.92;;;2.63;;
75289;SDS011;63883;48.996;20.804;2023-05-15T01:40:59;3.13;;;2.20;;
75289;SDS011;63883;48.996;20.804;2023-05-15T01:43:34;2.33;;;2.13;;
75289;SDS011;63883;48.996;20.804;2023-05-15T01:46:05;3.50;;;2.30;;
75289;SDS011;63883;48.996;20.804;2023-05-15T01:48:32;3.20;;;2.20;;
75289;SDS011;63883;48.996;20.804;2023-05-15T01:51:01;2.60;;;2.40;;
75289;SDS011;63883;48.996;20.804;2023-05-15T01:53:29;3.60;;;2.30;;
75289;SDS011;63883;48.996;20.804;2023-05-15T01:55:56;2.35;;;2.15;;
75289;SDS011;63883;48.996;20.804;2023-05-15T01:58:24;3.75;;;2.42;;
75289;SDS011;63883;48.996;20.804;2023-05-15T02:00:51;2.30;;;2.10;;
75289;SDS011;63883;48.996;20.804;2023-05-15T02:03:17;2.50;;;2.30;;
75289;SDS011;63883;48.996;20.804;2023-05-15T02:05:45;3.55;;;2.75;;
75289;SDS011;63883;48.996;20.804;2023-05-15T02:08:11;3.20;;;2.63;;
75289;SDS011;63883;48.996;20.804;2023-05-15T02:10:38;3.38;;;2.42;;
75289;SDS011;63883;48.996;20.804;2023-05-15T02:13:07;3.40;;;2.70;;
75289;SDS011;63883;48.996;20.804;2023-05-15T02:15:36;3.47;;;2.80;;
75289;SDS011;63883;48.996;20.804;2023-05-15T02:18:02;3.05;;;2.65;;
75289;SDS011;63883;48.996;20.804;2023-05-15T02:20:29;3.40;;;2.90;;
75289;SDS011;63883;48.996;20.804;2023-05-15T02:22:54;3.05;;;2.55;;
75289;SDS011;63883;48.996;20.804;2023-05-15T02:25:20;3.28;;;2.65;;
75289;SDS011;63883;48.996;20.804;2023-05-15T02:27:59;3.00;;;2.60;;
75289;SDS011;63883;48.996;20.804;2023-05-15T02:35:52;2.80;;;2.35;;
75289;SDS011;63883;48.996;20.804;2023-05-15T02:38:27;3.53;;;2.25;;
75289;SDS011;63883;48.996;20.804;2023-05-15T02:40:55;3.55;;;2.60;;
75289;SDS011;63883;48.996;20.804;2023-05-15T02:43:23;4.03;;;2.70;;
75289;SDS011;63883;48.996;20.804;2023-05-15T02:45:50;3.47;;;2.72;;
75289;SDS011;63883;48.996;20.804;2023-05-15T02:48:17;3.63;;;2.88;;
75289;SDS011;63883;48.996;20.804;2023-05-15T02:50:43;3.05;;;2.28;;
75289;SDS011;63883;48.996;20.804;2023-05-15T02:53:09;3.92;;;3.00;;
75289;SDS011;63883;48.996;20.804;2023-05-15T02:55:36;2.90;;;2.40;;
75289;SDS011;63883;48.996;20.804;2023-05-15T02:58:02;2.75;;;2.47;;
75289;SDS011;63883;48.996;20.804;2023-05-15T03:00:28;3.28;;;2.40;;
75289;SDS011;63883;48.996;20.804;2023-05-15T03:02:54;2.88;;;2.42;;
75289;SDS011;63883;48.996;20.804;2023-05-15T03:05:20;2.90;;;2.42;;
75289;SDS011;63883;48.996;20.804;2023-05-15T03:07:45;3.92;;;2.72;;
75289;SDS011;63883;48.996;20.804;2023-05-15T03:10:11;3.78;;;2.90;;
75289;SDS011;63883;48.996;20.804;2023-05-15T03:12:37;2.95;;;2.60;;
75289;SDS011;63883;48.996;20.804;2023-05-15T03:15:06;3.10;;;2.63;;
75289;SDS011;63883;48.996;20.804;2023-05-15T03:17:32;2.97;;;2.70;;
75289;SDS011;63883;48.996;20.804;2023-05-15T03:19:58;4.40;;;2.38;;
75289;SDS011;63883;48.996;20.804;2023-05-15T03:22:23;2.40;;;2.20;;
75289;SDS011;63883;48.996;20.804;2023-05-15T03:24:49;2.50;;;2.17;;
75289;SDS011;63883;48.996;20.804;2023-05-15T03:27:15;2.97;;;2.40;;
75289;SDS011;63883;48.996;20.804;2023-05-15T03:29:41;3.10;;;2.20;;
75289;SDS011;63883;48.996;20.804;2023-05-15T03:32:07;2.03;;;1.90;;
75289;SDS011;63883;48.996;20.804;2023-05-15T03:34:33;2.20;;;2.00;;
75289;SDS011;63883;48.996;20.804;2023-05-15T03:36:59;1.80;;;1.70;;
75289;SDS011;63883;48.996;20.804;2023-05-15T03:39:25;1.88;;;1.63;;
75289;SDS011;63883;48.996;20.804;2023-05-15T03:41:50;1.98;;;1.85;;
75289;SDS011;63883;48.996;20.804;2023-05-15T03:44:16;1.92;;;1.70;;
75289;SDS011;63883;48.996;20.804;2023-05-15T03:46:41;1.73;;;1.63;;
75289;SDS011;63883;48.996;20.804;2023-05-15T03:49:07;1.58;;;1.48;;
75289;SDS011;63883;48.996;20.804;2023-05-15T03:51:33;1.40;;;1.30;;
75289;SDS011;63883;48.996;20.804;2023-05-15T03:53:59;1.67;;;1.50;;
75289;SDS011;63883;48.996;20.804;2023-05-15T03:56:25;1.63;;;1.50;;
75289;SDS011;63883;48.996;20.804;2023-05-15T03:58:51;1.42;;;1.33;;
75289;SDS011;63883;48.996;20.804;2023-05-15T04:01:17;1.70;;;1.60;;
75289;SDS011;63883;48.996;20.804;2023-05-15T04:03:43;1.60;;;1.50;;
75289;SDS011;63883;48.996;20.804;2023-05-15T04:06:08;1.40;;;1.20;;
75289;SDS011;63883;48.996;20.804;2023-05-15T04:08:34;1.15;;;1.15;;
75289;SDS011;63883;48.996;20.804;2023-05-15T04:10:59;1.50;;;1.40;;
75289;SDS011;63883;48.996;20.804;2023-05-15T04:13:25;1.63;;;1.25;;
75289;SDS011;63883;48.996;20.804;2023-05-15T04:15:51;1.30;;;1.20;;
75289;SDS011;63883;48.996;20.804;2023-05-15T04:18:18;1.38;;;1.20;;
75289;SDS011;63883;48.996;20.804;2023-05-15T04:20:43;1.35;;;1.25;;
75289;SDS011;63883;48.996;20.804;2023-05-15T04:23:09;1.40;;;1.30;;
75289;SDS011;63883;48.996;20.804;2023-05-15T04:25:35;1.45;;;1.35;;
75289;SDS011;63883;48.996;20.804;2023-05-15T04:28:01;1.42;;;1.33;;
75289;SDS011;63883;48.996;20.804;2023-05-15T04:30:27;1.15;;;1.13;;
75289;SDS011;63883;48.996;20.804;2023-05-15T04:32:53;1.33;;;1.23;;
75289;SDS011;63883;48.996;20.804;2023-05-15T04:35:19;1.10;;;1.10;;
75289;SDS011;63883;48.996;20.804;2023-05-15T04:37:44;1.60;;;1.50;;
75289;SDS011;63883;48.996;20.804;2023-05-15T04:40:11;1.40;;;1.30;;
75289;SDS011;63883;48.996;20.804;2023-05-15T04:42:39;1.40;;;1.30;;
75289;SDS011;63883;48.996;20.804;2023-05-15T04:45:05;1.50;;;1.40;;
75289;SDS011;63883;48.996;20.804;2023-05-15T04:47:31;1.45;;;1.35;;
75289;SDS011;63883;48.996;20.804;2023-05-15T04:49:57;1.30;;;1.27;;
75289;SDS011;63883;48.996;20.804;2023-05-15T04:52:23;1.50;;;1.40;;
75289;SDS011;63883;48.996;20.804;2023-05-15T04:54:48;1.50;;;1.40;;
75289;SDS011;63883;48.996;20.804;2023-05-15T04:57:15;1.83;;;1.40;;
75289;SDS011;63883;48.996;20.804;2023-05-15T04:59:41;1.35;;;1.25;;
75289;SDS011;63883;48.996;20.804;2023-05-15T05:02:08;1.50;;;1.40;;
75289;SDS011;63883;48.996;20.804;2023-05-15T05:04:34;1.35;;;1.25;;
75289;SDS011;63883;48.996;20.804;2023-05-15T05:07:00;1.00;;;1.00;;
75289;SDS011;63883;48.996;20.804;2023-05-15T05:09:28;1.15;;;1.10;;
75289;SDS011;63883;48.996;20.804;2023-05-15T05:11:54;1.20;;;1.20;;
75289;SDS011;63883;48.996;20.804;2023-05-15T05:14:19;1.10;;;1.10;;
75289;SDS011;63883;48.996;20.804;2023-05-15T05:16:45;1.10;;;1.10;;
75289;SDS011;63883;48.996;20.804;2023-05-15T05:19:11;1.00;;;1.00;;
75289;SDS011;63883;48.996;20.804;2023-05-15T05:21:37;1.23;;;1.23;;
75289;SDS011;63883;48.996;20.804;2023-05-15T05:24:02;0.90;;;0.90;;
75289;SDS011;63883;48.996;20.804;2023-05-15T05:26:28;1.05;;;1.05;;
75289;SDS011;63883;48.996;20.804;2023-05-15T05:28:54;1.10;;;1.10;;
75289;SDS011;63883;48.996;20.804;2023-05-15T05:31:20;1.20;;;1.20;;
75289;SDS011;63883;48.996;20.804;2023-05-15T05:33:46;0.90;;;0.90;;
75289;SDS011;63883;48.996;20.804;2023-05-15T05:36:14;1.23;;;1.10;;
75289;SDS011;63883;48.996;20.804;2023-05-15T05:38:40;0.90;;;0.90;;
75289;SDS011;63883;48.996;20.804;2023-05-15T05:41:06;12.80;;;7.25;;
75289;SDS011;63883;48.996;20.804;2023-05-15T05:43:32;11.73;;;6.88;;
75289;SDS011;63883;48.996;20.804;2023-05-15T05:45:58;5.18;;;3.50;;
75289;SDS011;63883;48.996;20.804;2023-05-15T05:48:23;1.15;;;1.13;;
75289;SDS011;63883;48.996;20.804;2023-05-15T05:50:51;0.98;;;0.98;;
75289;SDS011;63883;48.996;20.804;2023-05-15T05:53:16;0.80;;;0.80;;
75289;SDS011;63883;48.996;20.804;2023-05-15T05:55:42;0.77;;;0.77;;
75289;SDS011;63883;48.996;20.804;2023-05-15T05:58:08;0.70;;;0.70;;
75289;SDS011;63883;48.996;20.804;2023-05-15T06:00:34;0.70;;;0.70;;
75289;SDS011;63883;48.996;20.804;2023-05-15T06:03:00;0.60;;;0.60;;
75289;SDS011;63883;48.996;20.804;2023-05-15T06:05:27;0.80;;;0.80;;
75289;SDS011;63883;48.996;20.804;2023-05-15T06:07:53;0.75;;;0.70;;
75289;SDS011;63883;48.996;20.804;2023-05-15T06:10:20;0.70;;;0.70;;
75289;SDS011;63883;48.996;20.804;2023-05-15T06:12:46;0.68;;;0.68;;
75289;SDS011;63883;48.996;20.804;2023-05-15T06:15:12;0.57;;;0.57;;
75289;SDS011;63883;48.996;20.804;2023-05-15T06:17:38;0.80;;;0.80;;
75289;SDS011;63883;48.996;20.804;2023-05-15T06:20:04;0.65;;;0.65;;
75289;SDS011;63883;48.996;20.804;2023-05-15T06:22:37;0.60;;;0.60;;
75289;SDS011;63883;48.996;20.804;2023-05-15T06:25:04;0.68;;;0.68;;
75289;SDS011;63883;48.996;20.804;2023-05-15T06:27:30;0.90;;;0.90;;
75289;SDS011;63883;48.996;20.804;2023-05-15T06:29:56;0.60;;;0.60;;
75289;SDS011;63883;48.996;20.804;2023-05-15T06:32:22;0.70;;;0.70;;
75289;SDS011;63883;48.996;20.804;2023-05-15T06:34:48;0.70;;;0.70;;
75289;SDS011;63883;48.996;20.804;2023-05-15T06:37:13;0.60;;;0.60;;
75289;SDS011;63883;48.996;20.804;2023-05-15T06:39:39;0.70;;;0.70;;
75289;SDS011;63883;48.996;20.804;2023-05-15T06:42:05;0.60;;;0.60;;
75289;SDS011;63883;48.996;20.804;2023-05-15T06:44:31;0.70;;;0.70;;
75289;SDS011;63883;48.996;20.804;2023-05-15T06:46:57;0.70;;;0.70;;
75289;SDS011;63883;48.996;20.804;2023-05-15T06:49:23;0.80;;;0.80;;
75289;SDS011;63883;48.996;20.804;2023-05-15T06:51:50;0.82;;;0.73;;
75289;SDS011;63883;48.996;20.804;2023-05-15T06:54:16;0.70;;;0.70;;
75289;SDS011;63883;48.996;20.804;2023-05-15T06:56:42;0.75;;;0.75;;
75289;SDS011;63883;48.996;20.804;2023-05-15T06:59:07;0.80;;;0.80;;
75289;SDS011;63883;48.996;20.804;2023-05-15T07:01:33;0.80;;;0.80;;
75289;SDS011;63883;48.996;20.804;2023-05-15T07:03:59;0.90;;;0.90;;
75289;SDS011;63883;48.996;20.804;2023-05-15T07:06:25;1.00;;;1.00;;
75289;SDS011;63883;48.996;20.804;2023-05-15T07:08:51;1.02;;;1.02;;
75289;SDS011;63883;48.996;20.804;2023-05-15T07:11:16;0.90;;;0.90;;
75289;SDS011;63883;48.996;20.804;2023-05-15T07:13:42;0.82;;;0.82;;
75289;SDS011;63883;48.996;20.804;2023-05-15T07:16:08;1.27;;;0.95;;
75289;SDS011;63883;48.996;20.804;2023-05-15T07:18:34;0.90;;;0.90;;
75289;SDS011;63883;48.996;20.804;2023-05-15T07:21:00;1.27;;;1.00;;
75289;SDS011;63883;48.996;20.804;2023-05-15T07:23:26;1.10;;;1.10;;
75289;SDS011;63883;48.996;20.804;2023-05-15T07:25:54;1.23;;;1.23;;
75289;SDS011;63883;48.996;20.804;2023-05-15T07:28:20;1.65;;;1.55;;
75289;SDS011;63883;48.996;20.804;2023-05-15T07:30:47;1.80;;;1.70;;
75289;SDS011;63883;48.996;20.804;2023-05-15T07:33:13;1.80;;;1.70;;
75289;SDS011;63883;48.996;20.804;2023-05-15T07:35:38;1.98;;;1.88;;
75289;SDS011;63883;48.996;20.804;2023-05-15T07:38:04;2.10;;;1.90;;
75289;SDS011;63883;48.996;20.804;2023-05-15T07:40:30;3.03;;;2.25;;
75289;SDS011;63883;48.996;20.804;2023-05-15T07:42:56;2.15;;;1.95;;
75289;SDS011;63883;48.996;20.804;2023-05-15T07:45:21;3.08;;;2.10;;
75289;SDS011;63883;48.996;20.804;2023-05-15T07:47:47;2.97;;;2.20;;
75289;SDS011;63883;48.996;20.804;2023-05-15T07:50:13;2.15;;;1.95;;
75289;SDS011;63883;48.996;20.804;2023-05-15T07:52:39;2.00;;;1.80;;
75289;SDS011;63883;48.996;20.804;2023-05-15T07:55:06;2.53;;;2.33;;
75289;SDS011;63883;48.996;20.804;2023-05-15T07:57:34;1.98;;;1.88;;
75289;SDS011;63883;48.996;20.804;2023-05-15T07:59:59;2.00;;;1.90;;
75289;SDS011;63883;48.996;20.804;2023-05-15T08:02:31;2.20;;;2.00;;
75289;SDS011;63883;48.996;20.804;2023-05-15T08:04:56;2.33;;;2.13;;
75289;SDS011;63883;48.996;20.804;2023-05-15T08:07:23;2.40;;;2.20;;
75289;SDS011;63883;48.996;20.804;2023-05-15T08:09:48;3.88;;;2.10;;
75289;SDS011;63883;48.996;20.804;2023-05-15T08:12:18;2.47;;;2.28;;
75289;SDS011;63883;48.996;20.804;2023-05-15T08:14:48;2.65;;;2.33;;
75289;SDS011;63883;48.996;20.804;2023-05-15T08:17:14;2.70;;;2.42;;
75289;SDS011;63883;48.996;20.804;2023-05-15T08:19:40;2.42;;;2.22;;
75289;SDS011;63883;48.996;20.804;2023-05-15T08:22:06;2.35;;;2.15;;
75289;SDS011;63883;48.996;20.804;2023-05-15T08:24:32;2.30;;;2.10;;
75289;SDS011;63883;48.996;20.804;2023-05-15T08:26:58;2.20;;;2.00;;
75289;SDS011;63883;48.996;20.804;2023-05-15T08:29:24;2.20;;;2.00;;
75289;SDS011;63883;48.996;20.804;2023-05-15T08:31:50;2.33;;;2.13;;
75289;SDS011;63883;48.996;20.804;2023-05-15T08:34:16;3.17;;;2.15;;
75289;SDS011;63883;48.996;20.804;2023-05-15T08:36:41;2.42;;;2.22;;
75289;SDS011;63883;48.996;20.804;2023-05-15T08:39:07;2.47;;;1.92;;
75289;SDS011;63883;48.996;20.804;2023-05-15T08:41:37;2.45;;;2.15;;
75289;SDS011;63883;48.996;20.804;2023-05-15T08:44:12;3.03;;;2.33;;
75289;SDS011;63883;48.996;20.804;2023-05-15T08:46:38;2.08;;;1.80;;
75289;SDS011;63883;48.996;20.804;2023-05-15T08:49:32;2.00;;;1.80;;
75289;SDS011;63883;48.996;20.804;2023-05-15T08:51:54;1.98;;;1.77;;
75289;SDS011;63883;48.996;20.804;2023-05-15T08:54:20;2.28;;;1.88;;
75289;SDS011;63883;48.996;20.804;2023-05-15T08:56:47;2.30;;;1.83;;
75289;SDS011;63883;48.996;20.804;2023-05-15T08:59:13;1.63;;;1.50;;
75289;SDS011;63883;48.996;20.804;2023-05-15T09:01:38;1.80;;;1.70;;
75289;SDS011;63883;48.996;20.804;2023-05-15T09:04:04;2.08;;;1.88;;
75289;SDS011;63883;48.996;20.804;2023-05-15T09:06:30;1.80;;;1.70;;
75289;SDS011;63883;48.996;20.804;2023-05-15T09:08:58;2.58;;;2.10;;
75289;SDS011;63883;48.996;20.804;2023-05-15T09:11:25;2.58;;;1.90;;
75289;SDS011;63883;48.996;20.804;2023-05-15T09:13:51;2.17;;;1.80;;
75289;SDS011;63883;48.996;20.804;2023-05-15T09:16:18;2.00;;;1.65;;
75289;SDS011;63883;48.996;20.804;2023-05-15T09:18:45;3.08;;;1.90;;
75289;SDS011;63883;48.996;20.804;2023-05-15T09:23:51;2.55;;;1.90;;
75289;SDS011;63883;48.996;20.804;2023-05-15T09:26:29;3.15;;;1.95;;
75289;SDS011;63883;48.996;20.804;2023-05-15T09:28:59;2.95;;;1.92;;
75289;SDS011;63883;48.996;20.804;2023-05-15T09:31:27;2.05;;;1.90;;
75289;SDS011;63883;48.996;20.804;2023-05-15T09:33:57;2.30;;;2.10;;
75289;SDS011;63883;48.996;20.804;2023-05-15T09:36:25;3.13;;;2.15;;
75289;SDS011;63883;48.996;20.804;2023-05-15T09:38:56;2.72;;;1.90;;
75289;SDS011;63883;48.996;20.804;2023-05-15T09:41:24;2.13;;;1.92;;
75289;SDS011;63883;48.996;20.804;2023-05-15T09:43:51;2.33;;;1.90;;
75289;SDS011;63883;48.996;20.804;2023-05-15T09:46:17;2.10;;;1.90;;
75289;SDS011;63883;48.996;20.804;2023-05-15T09:48:42;2.65;;;1.90;;
75289;SDS011;63883;48.996;20.804;2023-05-15T09:51:15;4.15;;;2.08;;
75289;SDS011;63883;48.996;20.804;2023-05-15T09:53:44;2.63;;;2.03;;
75289;SDS011;63883;48.996;20.804;2023-05-15T09:56:13;2.50;;;1.92;;
75289;SDS011;63883;48.996;20.804;2023-05-15T09:58:50;4.00;;;2.30;;
75289;SDS011;63883;48.996;20.804;2023-05-15T10:01:21;3.85;;;1.83;;
75289;SDS011;63883;48.996;20.804;2023-05-15T10:03:59;2.40;;;2.03;;
75289;SDS011;63883;48.996;20.804;2023-05-15T10:06:33;2.20;;;1.80;;
75289;SDS011;63883;48.996;20.804;2023-05-15T10:09:05;3.63;;;1.80;;
75289;SDS011;63883;48.996;20.804;2023-05-15T10:11:34;2.25;;;2.05;;
75289;SDS011;63883;48.996;20.804;2023-05-15T10:14:04;2.10;;;1.80;;
75289;SDS011;63883;48.996;20.804;2023-05-15T10:16:35;2.15;;;1.80;;
75289;SDS011;63883;48.996;20.804;2023-05-15T10:19:02;2.28;;;2.08;;
75289;SDS011;63883;48.996;20.804;2023-05-15T10:21:30;2.28;;;2.08;;
75289;SDS011;63883;48.996;20.804;2023-05-15T10:23:59;2.40;;;2.00;;
75289;SDS011;63883;48.996;20.804;2023-05-15T10:26:28;2.38;;;2.05;;
75289;SDS011;63883;48.996;20.804;2023-05-15T10:28:55;2.20;;;2.00;;
75289;SDS011;63883;48.996;20.804;2023-05-15T10:31:22;3.88;;;2.10;;
75289;SDS011;63883;48.996;20.804;2023-05-15T10:33:49;3.47;;;2.20;;
75289;SDS011;63883;48.996;20.804;2023-05-15T10:36:16;3.25;;;2.10;;
75289;SDS011;63883;48.996;20.804;2023-05-15T10:38:43;2.28;;;2.03;;
75289;SDS011;63883;48.996;20.804;2023-05-15T10:41:11;2.28;;;2.03;;
75289;SDS011;63883;48.996;20.804;2023-05-15T10:43:39;4.20;;;2.65;;
75289;SDS011;63883;48.996;20.804;2023-05-15T10:46:06;3.20;;;2.20;;
75289;SDS011;63883;48.996;20.804;2023-05-15T10:48:34;4.50;;;2.30;;
75289;SDS011;63883;48.996;20.804;2023-05-15T10:51:00;3.30;;;2.00;;
75289;SDS011;63883;48.996;20.804;2023-05-15T10:53:26;2.53;;;1.90;;
75289;SDS011;63883;48.996;20.804;2023-05-15T10:55:52;4.00;;;2.20;;
75289;SDS011;63883;48.996;20.804;2023-05-15T10:58:21;1.88;;;1.77;;
75289;SDS011;63883;48.996;20.804;2023-05-15T11:00:48;3.50;;;2.10;;
75289;SDS011;63883;48.996;20.804;2023-05-15T11:03:14;2.30;;;2.10;;
75289;SDS011;63883;48.996;20.804;2023-05-15T11:08:36;3.17;;;2.10;;
75289;SDS011;63883;48.996;20.804;2023-05-15T11:11:03;2.92;;;2.28;;
75289;SDS011;63883;48.996;20.804;2023-05-15T11:14:10;2.13;;;1.92;;
75289;SDS011;63883;48.996;20.804;2023-05-15T11:19:36;3.03;;;2.00;;
75289;SDS011;63883;48.996;20.804;2023-05-15T11:24:45;2.08;;;1.80;;
75289;SDS011;63883;48.996;20.804;2023-05-15T11:32:40;1.73;;;1.63;;
75289;SDS011;63883;48.996;20.804;2023-05-15T11:35:12;1.70;;;1.60;;
75289;SDS011;63883;48.996;20.804;2023-05-15T11:38:00;2.75;;;1.70;;
75289;SDS011;63883;48.996;20.804;2023-05-15T11:40:27;1.77;;;1.65;;
75289;SDS011;63883;48.996;20.804;2023-05-15T11:42:57;2.15;;;1.90;;
75289;SDS011;63883;48.996;20.804;2023-05-15T11:45:34;2.08;;;1.70;;
75289;SDS011;63883;48.996;20.804;2023-05-15T11:48:05;2.47;;;2.00;;
75289;SDS011;63883;48.996;20.804;2023-05-15T11:50:33;2.50;;;2.30;;
75289;SDS011;63883;48.996;20.804;2023-05-15T11:53:06;2.45;;;1.80;;
75289;SDS011;63883;48.996;20.804;2023-05-15T11:55:35;2.30;;;1.70;;
75289;SDS011;63883;48.996;20.804;2023-05-15T11:58:03;2.08;;;1.88;;
75289;SDS011;63883;48.996;20.804;2023-05-15T12:00:30;3.83;;;2.05;;
75289;SDS011;63883;48.996;20.804;2023-05-15T12:02:56;3.25;;;2.20;;
75289;SDS011;63883;48.996;20.804;2023-05-15T12:05:21;3.08;;;1.90;;
75289;SDS011;63883;48.996;20.804;2023-05-15T12:07:47;2.55;;;2.10;;
75289;SDS011;63883;48.996;20.804;2023-05-15T12:10:13;4.05;;;2.03;;
75289;SDS011;63883;48.996;20.804;2023-05-15T12:12:40;2.47;;;1.95;;
75289;SDS011;63883;48.996;20.804;2023-05-15T12:15:08;3.25;;;2.10;;
75289;SDS011;63883;48.996;20.804;2023-05-15T12:17:37;2.42;;;1.90;;
75289;SDS011;63883;48.996;20.804;2023-05-15T12:20:06;2.10;;;1.90;;
75289;SDS011;63883;48.996;20.804;2023-05-15T12:22:37;2.78;;;1.80;;
75289;SDS011;63883;48.996;20.804;2023-05-15T12:25:04;2.10;;;1.90;;
75289;SDS011;63883;48.996;20.804;2023-05-15T12:27:31;2.15;;;1.95;;
75289;SDS011;63883;48.996;20.804;2023-05-15T12:29:57;2.20;;;2.00;;
75289;SDS011;63883;48.996;20.804;2023-05-15T12:32:23;2.33;;;1.88;;
75289;SDS011;63883;48.996;20.804;2023-05-15T12:34:50;2.42;;;2.08;;
75289;SDS011;63883;48.996;20.804;2023-05-15T12:37:18;2.60;;;1.83;;
75289;SDS011;63883;48.996;20.804;2023-05-15T12:39:48;2.20;;;1.98;;
75289;SDS011;63883;48.996;20.804;2023-05-15T12:42:15;3.58;;;2.00;;
75289;SDS011;63883;48.996;20.804;2023-05-15T12:44:41;2.83;;;2.08;;
75289;SDS011;63883;48.996;20.804;2023-05-15T12:47:08;3.40;;;2.30;;
75289;SDS011;63883;48.996;20.804;2023-05-15T12:49:37;2.88;;;2.20;;
75289;SDS011;63883;48.996;20.804;2023-05-15T12:52:09;3.53;;;2.20;;
75289;SDS011;63883;48.996;20.804;2023-05-15T12:54:38;2.05;;;1.85;;
75289;SDS011;63883;48.996;20.804;2023-05-15T12:57:08;3.28;;;1.90;;
75289;SDS011;63883;48.996;20.804;2023-05-15T12:59:34;4.72;;;2.17;;
75289;SDS011;63883;48.996;20.804;2023-05-15T13:02:00;2.30;;;2.03;;
75289;SDS011;63883;48.996;20.804;2023-05-15T13:04:26;2.60;;;2.03;;
75289;SDS011;63883;48.996;20.804;2023-05-15T13:06:52;2.20;;;2.00;;
75289;SDS011;63883;48.996;20.804;2023-05-15T13:09:21;2.40;;;2.03;;
75289;SDS011;63883;48.996;20.804;2023-05-15T13:11:47;2.63;;;2.15;;
75289;SDS011;63883;48.996;20.804;2023-05-15T13:14:15;2.85;;;2.15;;
75289;SDS011;63883;48.996;20.804;2023-05-15T13:16:43;2.65;;;2.10;;
75289;SDS011;63883;48.996;20.804;2023-05-15T13:19:11;3.20;;;2.15;;
75289;SDS011;63883;48.996;20.804;2023-05-15T13:21:37;2.30;;;1.95;;
75289;SDS011;63883;48.996;20.804;2023-05-15T13:24:03;1.95;;;1.75;;
75289;SDS011;63883;48.996;20.804;2023-05-15T13:26:29;3.47;;;2.50;;
75289;SDS011;63883;48.996;20.804;2023-05-15T13:28:54;3.15;;;2.65;;
75289;SDS011;63883;48.996;20.804;2023-05-15T13:31:20;3.75;;;2.47;;
75289;SDS011;63883;48.996;20.804;2023-05-15T13:33:46;3.35;;;2.25;;
75289;SDS011;63883;48.996;20.804;2023-05-15T13:36:13;3.22;;;2.58;;
75289;SDS011;63883;48.996;20.804;2023-05-15T13:38:38;2.30;;;2.10;;
75289;SDS011;63883;48.996;20.804;2023-05-15T13:41:04;3.05;;;2.30;;
75289;SDS011;63883;48.996;20.804;2023-05-15T13:43:30;3.33;;;2.50;;
75289;SDS011;63883;48.996;20.804;2023-05-15T13:45:56;4.10;;;2.50;;
75289;SDS011;63883;48.996;20.804;2023-05-15T13:48:21;3.47;;;2.30;;
75289;SDS011;63883;48.996;20.804;2023-05-15T13:50:47;3.90;;;2.65;;
75289;SDS011;63883;48.996;20.804;2023-05-15T13:53:13;2.60;;;2.40;;
75289;SDS011;63883;48.996;20.804;2023-05-15T13:55:42;2.47;;;2.28;;
75289;SDS011;63883;48.996;20.804;2023-05-15T13:58:09;2.60;;;2.40;;
75289;SDS011;63883;48.996;20.804;2023-05-15T14:00:36;3.65;;;2.30;;
75289;SDS011;63883;48.996;20.804;2023-05-15T14:03:02;4.15;;;2.20;;
75289;SDS011;63883;48.996;20.804;2023-05-15T14:05:28;2.88;;;2.28;;
75289;SDS011;63883;48.996;20.804;2023-05-15T14:07:54;2.30;;;2.10;;
75289;SDS011;63883;48.996;20.804;2023-05-15T14:10:21;2.80;;;2.08;;
75289;SDS011;63883;48.996;20.804;2023-05-15T14:12:48;3.28;;;2.30;;
75289;SDS011;63883;48.996;20.804;2023-05-15T14:15:14;4.07;;;2.50;;
75289;SDS011;63883;48.996;20.804;2023-05-15T14:17:40;4.43;;;2.85;;
75289;SDS011;63883;48.996;20.804;2023-05-15T14:20:07;2.50;;;2.30;;
75289;SDS011;63883;48.996;20.804;2023-05-15T14:22:34;3.75;;;2.55;;
75289;SDS011;63883;48.996;20.804;2023-05-15T14:25:01;3.60;;;2.20;;
75289;SDS011;63883;48.996;20.804;2023-05-15T14:27:27;3.85;;;2.40;;
75289;SDS011;63883;48.996;20.804;2023-05-15T14:29:54;2.60;;;2.15;;
75289;SDS011;63883;48.996;20.804;2023-05-15T14:32:21;2.72;;;2.17;;
75289;SDS011;63883;48.996;20.804;2023-05-15T14:34:47;2.78;;;2.22;;
75289;SDS011;63883;48.996;20.804;2023-05-15T14:37:13;3.03;;;2.40;;
75289;SDS011;63883;48.996;20.804;2023-05-15T14:39:39;3.42;;;2.33;;
75289;SDS011;63883;48.996;20.804;2023-05-15T14:42:05;2.75;;;2.33;;
75289;SDS011;63883;48.996;20.804;2023-05-15T14:44:31;3.75;;;2.53;;
75289;SDS011;63883;48.996;20.804;2023-05-15T14:47:04;2.72;;;2.30;;
75289;SDS011;63883;48.996;20.804;2023-05-15T14:49:34;3.92;;;2.53;;
75289;SDS011;63883;48.996;20.804;2023-05-15T14:52:00;3.80;;;2.50;;
75289;SDS011;63883;48.996;20.804;2023-05-15T14:54:26;3.72;;;2.72;;
75289;SDS011;63883;48.996;20.804;2023-05-15T14:56:51;3.67;;;2.97;;
75289;SDS011;63883;48.996;20.804;2023-05-15T14:59:17;3.83;;;2.63;;
75289;SDS011;63883;48.996;20.804;2023-05-15T15:01:42;3.83;;;2.47;;
75289;SDS011;63883;48.996;20.804;2023-05-15T15:04:08;3.58;;;2.47;;
75289;SDS011;63883;48.996;20.804;2023-05-15T15:06:34;4.10;;;2.70;;
75289;SDS011;63883;48.996;20.804;2023-05-15T15:08:59;2.53;;;2.33;;
75289;SDS011;63883;48.996;20.804;2023-05-15T15:11:25;3.80;;;2.58;;
75289;SDS011;63883;48.996;20.804;2023-05-15T15:13:51;3.40;;;2.55;;
75289;SDS011;63883;48.996;20.804;2023-05-15T15:16:17;3.38;;;2.70;;